Terminal Aerodrome Forecast
Issued by NWS Cleveland, OH

Home | Current Version | Previous Version | Graphics & Text | Print | Product List | Glossary On
Versions: 1 2 3 4 5 6 7 8 9 10 11 12 13 14 15 16 17 18 19
000
FTUS41 KCLE 240500
TAFERI
TAF
KERI 240528Z 2406/2506 18007KT P6SM SKC
     FM241600 21015G25KT P6SM SCT040 BKN120
     FM250100 24015G25KT 3SM -SN SCT012 OVC020=

USA.gov is the U.S. government's official web portal to all federal, state and local government web resources and services.